sensor_id;sensor_type;location;lat;lon;timestamp;pressure;altitude;pressure_sealevel;temperature;humidity
34658;BME280;20865;43.312;27.152;2023-02-13T00:00:38;102554.20;;;5.47;39.94
34658;BME280;20865;43.312;27.152;2023-02-13T00:03:06;102551.64;;;5.50;40.18
34658;BME280;20865;43.312;27.152;2023-02-13T00:05:33;102549.48;;;5.51;40.18
34658;BME280;20865;43.312;27.152;2023-02-13T00:08:01;102562.79;;;5.54;40.36
34658;BME280;20865;43.312;27.152;2023-02-13T00:10:28;102557.57;;;5.57;40.46
34658;BME280;20865;43.312;27.152;2023-02-13T00:12:56;102554.11;;;5.60;40.83
34658;BME280;20865;43.312;27.152;2023-02-13T00:15:24;102561.34;;;5.65;40.69
34658;BME280;20865;43.312;27.152;2023-02-13T00:17:51;102567.62;;;5.69;40.64
34658;BME280;20865;43.312;27.152;2023-02-13T00:20:19;102558.25;;;5.66;40.53
34658;BME280;20865;43.312;27.152;2023-02-13T00:22:46;102559.17;;;5.68;40.09
34658;BME280;20865;43.312;27.152;2023-02-13T00:25:14;102556.95;;;5.67;40.11
34658;BME280;20865;43.312;27.152;2023-02-13T00:27:42;102555.14;;;5.65;40.40
34658;BME280;20865;43.312;27.152;2023-02-13T00:30:10;102557.02;;;5.69;40.55
34658;BME280;20865;43.312;27.152;2023-02-13T00:32:38;102555.36;;;5.74;40.70
34658;BME280;20865;43.312;27.152;2023-02-13T00:35:06;102554.55;;;5.77;40.70
34658;BME280;20865;43.312;27.152;2023-02-13T00:37:34;102560.83;;;5.80;40.59
34658;BME280;20865;43.312;27.152;2023-02-13T00:40:01;102558.20;;;5.82;40.66
34658;BME280;20865;43.312;27.152;2023-02-13T00:42:29;102554.71;;;5.83;40.49
34658;BME280;20865;43.312;27.152;2023-02-13T00:44:57;102565.32;;;5.83;40.40
34658;BME280;20865;43.312;27.152;2023-02-13T00:47:24;102556.93;;;5.83;40.84
34658;BME280;20865;43.312;27.152;2023-02-13T00:49:52;102552.59;;;5.87;41.06
34658;BME280;20865;43.312;27.152;2023-02-13T00:52:19;102551.38;;;5.91;41.15
34658;BME280;20865;43.312;27.152;2023-02-13T00:54:47;102552.00;;;5.97;41.06
34658;BME280;20865;43.312;27.152;2023-02-13T00:57:14;102554.75;;;6.02;40.97
34658;BME280;20865;43.312;27.152;2023-02-13T00:59:42;102562.36;;;6.05;40.58
34658;BME280;20865;43.312;27.152;2023-02-13T01:02:10;102557.92;;;6.04;40.20
34658;BME280;20865;43.312;27.152;2023-02-13T01:04:37;102560.04;;;6.00;40.21
34658;BME280;20865;43.312;27.152;2023-02-13T01:07:05;102561.39;;;6.02;40.18
34658;BME280;20865;43.312;27.152;2023-02-13T01:09:33;102562.20;;;5.99;40.44
34658;BME280;20865;43.312;27.152;2023-02-13T01:12:00;102556.06;;;6.00;40.71
34658;BME280;20865;43.312;27.152;2023-02-13T01:14:28;102560.44;;;6.00;40.56
34658;BME280;20865;43.312;27.152;2023-02-13T01:16:55;102560.58;;;6.04;40.66
34658;BME280;20865;43.312;27.152;2023-02-13T01:19:23;102566.67;;;6.00;40.29
34658;BME280;20865;43.312;27.152;2023-02-13T01:21:50;102563.45;;;5.96;40.18
34658;BME280;20865;43.312;27.152;2023-02-13T01:24:18;102552.19;;;5.89;40.16
34658;BME280;20865;43.312;27.152;2023-02-13T01:26:46;102560.93;;;5.85;40.26
34658;BME280;20865;43.312;27.152;2023-02-13T01:29:14;102558.28;;;5.85;40.38
34658;BME280;20865;43.312;27.152;2023-02-13T01:31:41;102568.08;;;5.87;40.49
34658;BME280;20865;43.312;27.152;2023-02-13T01:34:09;102560.93;;;5.85;40.54
34658;BME280;20865;43.312;27.152;2023-02-13T01:36:36;102561.74;;;5.82;40.54
34658;BME280;20865;43.312;27.152;2023-02-13T01:39:04;102556.03;;;5.83;40.70
34658;BME280;20865;43.312;27.152;2023-02-13T01:41:32;102552.14;;;5.86;40.72
34658;BME280;20865;43.312;27.152;2023-02-13T01:44:00;102558.36;;;5.88;40.48
34658;BME280;20865;43.312;27.152;2023-02-13T01:46:40;102556.88;;;5.82;40.27
34658;BME280;20865;43.312;27.152;2023-02-13T01:51:38;102559.69;;;5.70;40.04
34658;BME280;20865;43.312;27.152;2023-02-13T01:54:12;102553.49;;;5.70;40.08
34658;BME280;20865;43.312;27.152;2023-02-13T01:56:48;102548.10;;;5.67;40.36
34658;BME280;20865;43.312;27.152;2023-02-13T01:59:19;102549.48;;;5.68;40.66
34658;BME280;20865;43.312;27.152;2023-02-13T02:01:47;102550.76;;;5.67;40.97
34658;BME280;20865;43.312;27.152;2023-02-13T02:04:28;102557.14;;;5.75;40.95
34658;BME280;20865;43.312;27.152;2023-02-13T02:06:54;102553.33;;;5.81;40.75
34658;BME280;20865;43.312;27.152;2023-02-13T02:09:25;102567.03;;;5.81;40.46
34658;BME280;20865;43.312;27.152;2023-02-13T02:14:35;102564.56;;;5.71;39.68
34658;BME280;20865;43.312;27.152;2023-02-13T02:17:03;102568.43;;;5.66;39.65
34658;BME280;20865;43.312;27.152;2023-02-13T02:22:36;102566.13;;;5.63;39.77
34658;BME280;20865;43.312;27.152;2023-02-13T02:25:16;102553.92;;;5.52;40.03
34658;BME280;20865;43.312;27.152;2023-02-13T02:27:53;102560.44;;;5.47;40.11
34658;BME280;20865;43.312;27.152;2023-02-13T02:33:30;102569.55;;;5.41;40.16
34658;BME280;20865;43.312;27.152;2023-02-13T02:36:01;102567.09;;;5.33;39.96
34658;BME280;20865;43.312;27.152;2023-02-13T02:46:56;102568.16;;;5.08;40.10
34658;BME280;20865;43.312;27.152;2023-02-13T02:49:42;102566.27;;;5.03;40.38
34658;BME280;20865;43.312;27.152;2023-02-13T02:52:42;102569.83;;;5.05;41.34
34658;BME280;20865;43.312;27.152;2023-02-13T02:57:51;102578.05;;;5.14;41.30
34658;BME280;20865;43.312;27.152;2023-02-13T03:00:39;102571.77;;;5.10;41.02
34658;BME280;20865;43.312;27.152;2023-02-13T03:03:25;102572.58;;;5.08;39.16
34658;BME280;20865;43.312;27.152;2023-02-13T03:06:14;102572.64;;;4.95;39.88
34658;BME280;20865;43.312;27.152;2023-02-13T03:08:44;102570.97;;;4.83;40.07
34658;BME280;20865;43.312;27.152;2023-02-13T03:11:30;102569.58;;;4.81;40.62
34658;BME280;20865;43.312;27.152;2023-02-13T03:14:18;102574.10;;;4.69;40.53
34658;BME280;20865;43.312;27.152;2023-02-13T03:16:47;102571.52;;;4.71;40.08
34658;BME280;20865;43.312;27.152;2023-02-13T03:25:14;102573.02;;;4.63;39.55
34658;BME280;20865;43.312;27.152;2023-02-13T03:28:09;102578.28;;;4.61;39.95
34658;BME280;20865;43.312;27.152;2023-02-13T03:31:04;102571.69;;;4.63;40.32
34658;BME280;20865;43.312;27.152;2023-02-13T03:41:49;102570.47;;;4.66;40.15
34658;BME280;20865;43.312;27.152;2023-02-13T03:46:58;102574.73;;;4.61;39.37
34658;BME280;20865;43.312;27.152;2023-02-13T03:49:35;102571.44;;;4.53;39.23
34658;BME280;20865;43.312;27.152;2023-02-13T03:52:29;102574.45;;;4.51;39.20
34658;BME280;20865;43.312;27.152;2023-02-13T03:55:03;102570.24;;;4.44;39.29
34658;BME280;20865;43.312;27.152;2023-02-13T03:57:51;102570.67;;;4.43;39.39
34658;BME280;20865;43.312;27.152;2023-02-13T04:00:40;102564.48;;;4.43;39.75
34658;BME280;20865;43.312;27.152;2023-02-13T04:03:19;102562.14;;;4.39;39.93
34658;BME280;20865;43.312;27.152;2023-02-13T04:05:47;102569.19;;;4.39;39.92
34658;BME280;20865;43.312;27.152;2023-02-13T04:08:15;102567.30;;;4.35;38.96
34658;BME280;20865;43.312;27.152;2023-02-13T04:10:56;102569.97;;;4.22;39.28
34658;BME280;20865;43.312;27.152;2023-02-13T04:13:33;102570.80;;;4.19;39.79
34658;BME280;20865;43.312;27.152;2023-02-13T04:16:09;102568.25;;;4.22;39.62
34658;BME280;20865;43.312;27.152;2023-02-13T04:18:38;102560.67;;;4.20;39.58
34658;BME280;20865;43.312;27.152;2023-02-13T04:21:06;102562.95;;;4.22;39.80
34658;BME280;20865;43.312;27.152;2023-02-13T04:23:34;102563.75;;;4.20;40.03
34658;BME280;20865;43.312;27.152;2023-02-13T04:26:05;102562.63;;;4.12;39.39
34658;BME280;20865;43.312;27.152;2023-02-13T04:28:33;102561.66;;;4.10;39.12
34658;BME280;20865;43.312;27.152;2023-02-13T04:31:00;102565.92;;;4.04;39.17
34658;BME280;20865;43.312;27.152;2023-02-13T04:33:28;102563.30;;;4.06;39.11
34658;BME280;20865;43.312;27.152;2023-02-13T04:35:55;102564.16;;;4.05;39.09
34658;BME280;20865;43.312;27.152;2023-02-13T04:38:23;102559.70;;;4.04;39.20
34658;BME280;20865;43.312;27.152;2023-02-13T04:40:50;102568.14;;;4.05;39.50
34658;BME280;20865;43.312;27.152;2023-02-13T04:43:19;102576.00;;;4.03;39.52
34658;BME280;20865;43.312;27.152;2023-02-13T04:45:50;102569.81;;;4.03;39.39
34658;BME280;20865;43.312;27.152;2023-02-13T04:48:18;102578.61;;;4.02;39.44
34658;BME280;20865;43.312;27.152;2023-02-13T04:50:46;102578.11;;;4.01;39.05
34658;BME280;20865;43.312;27.152;2023-02-13T04:53:13;102580.76;;;4.01;38.84
34658;BME280;20865;43.312;27.152;2023-02-13T04:55:41;102583.02;;;4.01;39.01
34658;BME280;20865;43.312;27.152;2023-02-13T04:58:08;102576.33;;;4.00;39.22
34658;BME280;20865;43.312;27.152;2023-02-13T05:00:36;102582.08;;;4.01;39.16
34658;BME280;20865;43.312;27.152;2023-02-13T05:03:06;102572.83;;;4.01;39.58
34658;BME280;20865;43.312;27.152;2023-02-13T05:05:34;102573.86;;;4.04;39.78
34658;BME280;20865;43.312;27.152;2023-02-13T05:08:02;102573.42;;;4.05;39.87
34658;BME280;20865;43.312;27.152;2023-02-13T05:10:30;102573.78;;;4.03;39.68
34658;BME280;20865;43.312;27.152;2023-02-13T05:12:58;102588.34;;;4.03;39.38
34658;BME280;20865;43.312;27.152;2023-02-13T05:15:25;102585.66;;;4.01;39.11
34658;BME280;20865;43.312;27.152;2023-02-13T05:17:53;102586.88;;;3.98;39.18
34658;BME280;20865;43.312;27.152;2023-02-13T05:20:21;102591.73;;;3.99;39.12
34658;BME280;20865;43.312;27.152;2023-02-13T05:22:51;102595.31;;;4.01;39.08
34658;BME280;20865;43.312;27.152;2023-02-13T05:25:39;102601.78;;;3.96;39.08
34658;BME280;20865;43.312;27.152;2023-02-13T05:28:07;102609.19;;;3.94;38.48
34658;BME280;20865;43.312;27.152;2023-02-13T05:30:36;102608.14;;;3.89;38.62
34658;BME280;20865;43.312;27.152;2023-02-13T05:33:05;102619.19;;;3.90;38.48
34658;BME280;20865;43.312;27.152;2023-02-13T05:35:33;102622.86;;;3.80;38.48
34658;BME280;20865;43.312;27.152;2023-02-13T05:38:00;102621.83;;;3.90;38.69
34658;BME280;20865;43.312;27.152;2023-02-13T05:40:28;102622.27;;;4.85;37.48
34658;BME280;20865;43.312;27.152;2023-02-13T05:42:55;102634.45;;;6.22;35.23
34658;BME280;20865;43.312;27.152;2023-02-13T05:45:23;102630.73;;;7.55;33.02
34658;BME280;20865;43.312;27.152;2023-02-13T05:47:51;102623.41;;;8.72;31.02
34658;BME280;20865;43.312;27.152;2023-02-13T05:50:19;102631.80;;;9.78;29.01
34658;BME280;20865;43.312;27.152;2023-02-13T05:52:46;102625.53;;;10.82;27.58
34658;BME280;20865;43.312;27.152;2023-02-13T05:55:14;102631.20;;;11.67;26.20
34658;BME280;20865;43.312;27.152;2023-02-13T05:57:42;102629.50;;;12.26;25.46
34658;BME280;20865;43.312;27.152;2023-02-13T06:00:10;102628.58;;;12.55;24.95
34658;BME280;20865;43.312;27.152;2023-02-13T06:02:38;102634.42;;;12.48;25.00
34658;BME280;20865;43.312;27.152;2023-02-13T06:05:06;102632.18;;;12.23;25.20
34658;BME280;20865;43.312;27.152;2023-02-13T06:07:34;102627.72;;;11.93;25.87
34658;BME280;20865;43.312;27.152;2023-02-13T06:10:01;102628.08;;;11.62;26.56
34658;BME280;20865;43.312;27.152;2023-02-13T06:12:29;102630.23;;;11.35;26.90
34658;BME280;20865;43.312;27.152;2023-02-13T06:14:56;102619.89;;;11.14;27.57
34658;BME280;20865;43.312;27.152;2023-02-13T06:17:24;102620.26;;;10.95;27.97
34658;BME280;20865;43.312;27.152;2023-02-13T06:19:52;102617.50;;;10.83;28.54
34658;BME280;20865;43.312;27.152;2023-02-13T06:22:19;102615.68;;;10.76;28.78
34658;BME280;20865;43.312;27.152;2023-02-13T06:24:47;102621.91;;;10.70;29.07
34658;BME280;20865;43.312;27.152;2023-02-13T06:27:14;102619.65;;;10.70;29.30
34658;BME280;20865;43.312;27.152;2023-02-13T06:29:42;102612.97;;;10.70;29.83
34658;BME280;20865;43.312;27.152;2023-02-13T06:32:09;102622.78;;;10.68;29.88
34658;BME280;20865;43.312;27.152;2023-02-13T06:34:37;102616.52;;;10.64;29.99
34658;BME280;20865;43.312;27.152;2023-02-13T06:37:05;102622.33;;;10.67;30.11
34658;BME280;20865;43.312;27.152;2023-02-13T06:39:33;102623.70;;;10.76;30.08
34658;BME280;20865;43.312;27.152;2023-02-13T06:42:00;102622.38;;;10.81;30.67
34658;BME280;20865;43.312;27.152;2023-02-13T06:44:28;102621.55;;;10.89;31.01
34658;BME280;20865;43.312;27.152;2023-02-13T06:46:56;102622.95;;;11.00;30.67
34658;BME280;20865;43.312;27.152;2023-02-13T06:49:24;102612.71;;;11.03;30.33
34658;BME280;20865;43.312;27.152;2023-02-13T06:51:52;102612.75;;;11.09;29.91
34658;BME280;20865;43.312;27.152;2023-02-13T06:54:19;102609.92;;;10.84;29.73
34658;BME280;20865;43.312;27.152;2023-02-13T06:56:47;102610.41;;;10.88;30.02
34658;BME280;20865;43.312;27.152;2023-02-13T06:59:15;102602.41;;;10.91;30.02
34658;BME280;20865;43.312;27.152;2023-02-13T07:01:42;102599.78;;;11.02;30.17
34658;BME280;20865;43.312;27.152;2023-02-13T07:04:10;102606.44;;;10.96;30.32
34658;BME280;20865;43.312;27.152;2023-02-13T07:06:37;102608.73;;;11.09;30.13
34658;BME280;20865;43.312;27.152;2023-02-13T07:09:05;102612.25;;;11.00;30.35
34658;BME280;20865;43.312;27.152;2023-02-13T07:11:33;102622.55;;;11.11;30.38
34658;BME280;20865;43.312;27.152;2023-02-13T07:14:00;102623.45;;;11.09;30.28
34658;BME280;20865;43.312;27.152;2023-02-13T07:16:28;102615.83;;;11.04;30.45
34658;BME280;20865;43.312;27.152;2023-02-13T07:18:55;102629.73;;;11.25;30.93
34658;BME280;20865;43.312;27.152;2023-02-13T07:21:23;102625.73;;;11.29;30.75
34658;BME280;20865;43.312;27.152;2023-02-13T07:23:51;102627.58;;;11.45;30.48
34658;BME280;20865;43.312;27.152;2023-02-13T07:26:19;102626.19;;;11.27;30.61
34658;BME280;20865;43.312;27.152;2023-02-13T07:28:46;102626.22;;;11.33;30.63
34658;BME280;20865;43.312;27.152;2023-02-13T07:31:14;102626.69;;;11.47;30.99
34658;BME280;20865;43.312;27.152;2023-02-13T07:33:41;102617.81;;;11.71;30.85
34658;BME280;20865;43.312;27.152;2023-02-13T07:36:09;102608.94;;;11.85;31.10
34658;BME280;20865;43.312;27.152;2023-02-13T07:38:36;102602.27;;;12.01;30.85
34658;BME280;20865;43.312;27.152;2023-02-13T07:41:04;102600.02;;;12.09;30.85
34658;BME280;20865;43.312;27.152;2023-02-13T07:43:32;102600.48;;;12.29;31.06
34658;BME280;20865;43.312;27.152;2023-02-13T07:46:01;102590.17;;;12.44;31.11
34658;BME280;20865;43.312;27.152;2023-02-13T07:48:29;102589.72;;;12.47;31.01
34658;BME280;20865;43.312;27.152;2023-02-13T07:51:03;102581.23;;;12.55;31.12
34658;BME280;20865;43.312;27.152;2023-02-13T07:53:30;102585.64;;;12.72;31.43
34658;BME280;20865;43.312;27.152;2023-02-13T07:55:58;102573.13;;;12.77;31.44
34658;BME280;20865;43.312;27.152;2023-02-13T07:58:25;102572.20;;;12.87;31.20
34658;BME280;20865;43.312;27.152;2023-02-13T08:00:53;102567.17;;;13.11;30.73
34658;BME280;20865;43.312;27.152;2023-02-13T08:03:22;102567.56;;;13.29;29.80
34658;BME280;20865;43.312;27.152;2023-02-13T08:05:50;102566.58;;;13.41;29.82
34658;BME280;20865;43.312;27.152;2023-02-13T08:08:18;102570.11;;;13.46;29.35
34658;BME280;20865;43.312;27.152;2023-02-13T08:10:45;102568.34;;;13.49;29.41
34658;BME280;20865;43.312;27.152;2023-02-13T08:13:33;102563.41;;;13.47;28.58
34658;BME280;20865;43.312;27.152;2023-02-13T08:16:02;102564.37;;;13.37;29.01
34658;BME280;20865;43.312;27.152;2023-02-13T08:18:30;102560.80;;;13.37;28.79
34658;BME280;20865;43.312;27.152;2023-02-13T08:20:58;102570.17;;;13.38;29.04
34658;BME280;20865;43.312;27.152;2023-02-13T08:23:27;102567.45;;;13.44;29.00
34658;BME280;20865;43.312;27.152;2023-02-13T08:25:54;102559.52;;;13.26;28.68
34658;BME280;20865;43.312;27.152;2023-02-13T08:28:23;102559.49;;;13.32;29.47
34658;BME280;20865;43.312;27.152;2023-02-13T08:30:51;102555.89;;;13.33;29.60
34658;BME280;20865;43.312;27.152;2023-02-13T08:33:19;102556.35;;;13.32;29.50
34658;BME280;20865;43.312;27.152;2023-02-13T08:35:46;102545.15;;;13.31;29.34
34658;BME280;20865;43.312;27.152;2023-02-13T08:38:14;102546.52;;;13.30;28.97
34658;BME280;20865;43.312;27.152;2023-02-13T08:40:42;102550.55;;;13.30;29.29
34658;BME280;20865;43.312;27.152;2023-02-13T08:43:09;102551.86;;;13.31;29.08
34658;BME280;20865;43.312;27.152;2023-02-13T08:45:37;102541.11;;;13.36;28.82
34658;BME280;20865;43.312;27.152;2023-02-13T08:48:04;102539.77;;;13.36;29.13
34658;BME280;20865;43.312;27.152;2023-02-13T08:50:33;102541.60;;;13.29;28.17
34658;BME280;20865;43.312;27.152;2023-02-13T08:53:01;102537.16;;;13.16;28.74
34658;BME280;20865;43.312;27.152;2023-02-13T08:55:28;102548.31;;;13.29;28.60
34658;BME280;20865;43.312;27.152;2023-02-13T08:58:03;102540.22;;;13.34;28.54
34658;BME280;20865;43.312;27.152;2023-02-13T09:00:27;102541.08;;;13.41;28.18
34658;BME280;20865;43.312;27.152;2023-02-13T09:03:00;102539.70;;;13.42;28.17
34658;BME280;20865;43.312;27.152;2023-02-13T09:05:29;102534.31;;;13.50;27.96
34658;BME280;20865;43.312;27.152;2023-02-13T09:08:01;102528.91;;;13.51;27.38
34658;BME280;20865;43.312;27.152;2023-02-13T09:10:30;102527.47;;;13.65;27.29
34658;BME280;20865;43.312;27.152;2023-02-13T09:12:58;102520.69;;;13.73;27.20
34658;BME280;20865;43.312;27.152;2023-02-13T09:15:26;102528.70;;;13.79;27.04
34658;BME280;20865;43.312;27.152;2023-02-13T09:17:54;102522.41;;;13.85;26.73
34658;BME280;20865;43.312;27.152;2023-02-13T09:20:22;102513.38;;;13.90;26.50
34658;BME280;20865;43.312;27.152;2023-02-13T09:22:49;102505.70;;;13.99;25.95
34658;BME280;20865;43.312;27.152;2023-02-13T09:25:17;102511.06;;;13.97;25.65
34658;BME280;20865;43.312;27.152;2023-02-13T09:27:46;102501.05;;;14.16;25.96
34658;BME280;20865;43.312;27.152;2023-02-13T09:30:14;102502.67;;;14.31;25.39
34658;BME280;20865;43.312;27.152;2023-02-13T09:32:43;102496.66;;;14.50;26.21
34658;BME280;20865;43.312;27.152;2023-02-13T09:35:11;102500.52;;;14.65;25.52
34658;BME280;20865;43.312;27.152;2023-02-13T09:37:40;102495.95;;;14.72;25.58
34658;BME280;20865;43.312;27.152;2023-02-13T09:40:21;102491.25;;;14.89;25.36
34658;BME280;20865;43.312;27.152;2023-02-13T09:42:45;102480.98;;;14.86;25.01
34658;BME280;20865;43.312;27.152;2023-02-13T09:45:15;102477.98;;;15.07;24.70
34658;BME280;20865;43.312;27.152;2023-02-13T09:47:44;102471.47;;;15.22;24.83
34658;BME280;20865;43.312;27.152;2023-02-13T09:50:23;102472.27;;;15.29;24.43
34658;BME280;20865;43.312;27.152;2023-02-13T09:52:55;102468.74;;;15.23;24.31
34658;BME280;20865;43.312;27.152;2023-02-13T09:55:46;102466.00;;;15.28;24.03
34658;BME280;20865;43.312;27.152;2023-02-13T10:01:04;102460.36;;;15.43;24.20
34658;BME280;20865;43.312;27.152;2023-02-13T10:03:42;102447.69;;;15.50;24.37
34658;BME280;20865;43.312;27.152;2023-02-13T10:08:45;102437.23;;;15.57;23.47
34658;BME280;20865;43.312;27.152;2023-02-13T10:14:10;102437.59;;;15.63;23.65
34658;BME280;20865;43.312;27.152;2023-02-13T10:16:40;102430.82;;;15.64;23.84
34658;BME280;20865;43.312;27.152;2023-02-13T10:19:40;102431.13;;;15.75;24.12
34658;BME280;20865;43.312;27.152;2023-02-13T10:22:28;102432.93;;;15.74;24.26
34658;BME280;20865;43.312;27.152;2023-02-13T10:24:58;102418.16;;;15.73;24.26
34658;BME280;20865;43.312;27.152;2023-02-13T10:27:24;102414.33;;;15.84;24.16
34658;BME280;20865;43.312;27.152;2023-02-13T10:32:48;102399.77;;;15.94;23.77
34658;BME280;20865;43.312;27.152;2023-02-13T10:35:29;102395.04;;;16.06;24.29
34658;BME280;20865;43.312;27.152;2023-02-13T10:37:56;102391.87;;;16.08;23.59
34658;BME280;20865;43.312;27.152;2023-02-13T10:40:36;102384.72;;;16.05;24.34
34658;BME280;20865;43.312;27.152;2023-02-13T10:43:11;102376.88;;;16.15;24.34
34658;BME280;20865;43.312;27.152;2023-02-13T10:45:48;102364.23;;;16.17;24.33
34658;BME280;20865;43.312;27.152;2023-02-13T10:59:17;102359.17;;;16.44;24.27
34658;BME280;20865;43.312;27.152;2023-02-13T11:01:58;102347.74;;;16.52;24.01
34658;BME280;20865;43.312;27.152;2023-02-13T11:04:25;102350.89;;;16.53;24.21
34658;BME280;20865;43.312;27.152;2023-02-13T11:06:58;102353.27;;;16.67;24.12
34658;BME280;20865;43.312;27.152;2023-02-13T11:09:27;102346.55;;;16.65;23.60
34658;BME280;20865;43.312;27.152;2023-02-13T11:11:54;102341.42;;;16.73;23.83
34658;BME280;20865;43.312;27.152;2023-02-13T11:14:24;102336.55;;;16.71;23.84
34658;BME280;20865;43.312;27.152;2023-02-13T11:17:04;102333.30;;;16.76;24.10
34658;BME280;20865;43.312;27.152;2023-02-13T11:19:52;102328.56;;;16.85;23.93
34658;BME280;20865;43.312;27.152;2023-02-13T11:22:31;102316.77;;;16.89;23.91
34658;BME280;20865;43.312;27.152;2023-02-13T11:25:16;102323.38;;;16.96;23.81
34658;BME280;20865;43.312;27.152;2023-02-13T11:27:37;102306.55;;;17.02;23.67
34658;BME280;20865;43.312;27.152;2023-02-13T11:30:34;102303.73;;;17.07;23.52
34658;BME280;20865;43.312;27.152;2023-02-13T11:35:46;102297.67;;;16.97;24.22
34658;BME280;20865;43.312;27.152;2023-02-13T11:40:49;102290.63;;;17.09;23.83
34658;BME280;20865;43.312;27.152;2023-02-13T11:43:36;102283.81;;;17.11;23.84
34658;BME280;20865;43.312;27.152;2023-02-13T11:46:05;102284.59;;;17.16;23.58
34658;BME280;20865;43.312;27.152;2023-02-13T11:48:34;102271.12;;;17.14;23.94
34658;BME280;20865;43.312;27.152;2023-02-13T11:51:02;102268.94;;;17.12;23.65
34658;BME280;20865;43.312;27.152;2023-02-13T11:53:38;102258.97;;;17.14;24.25
34658;BME280;20865;43.312;27.152;2023-02-13T11:56:16;102261.05;;;17.21;24.41
34658;BME280;20865;43.312;27.152;2023-02-13T11:58:40;102258.13;;;17.29;24.57
34658;BME280;20865;43.312;27.152;2023-02-13T12:06:31;102245.78;;;17.36;24.68
34658;BME280;20865;43.312;27.152;2023-02-13T12:09:00;102234.86;;;17.39;25.18
34658;BME280;20865;43.312;27.152;2023-02-13T12:11:39;102233.07;;;17.24;24.87
34658;BME280;20865;43.312;27.152;2023-02-13T12:14:05;102239.84;;;17.22;25.14
34658;BME280;20865;43.312;27.152;2023-02-13T12:16:42;102232.68;;;17.21;25.14
34658;BME280;20865;43.312;27.152;2023-02-13T12:19:16;102243.09;;;17.19;25.07
34658;BME280;20865;43.312;27.152;2023-02-13T12:27:09;102222.29;;;17.22;25.41
34658;BME280;20865;43.312;27.152;2023-02-13T12:32:44;102228.62;;;17.21;25.53
34658;BME280;20865;43.312;27.152;2023-02-13T12:38:15;102218.91;;;17.16;25.81
34658;BME280;20865;43.312;27.152;2023-02-13T12:41:04;102222.54;;;16.97;26.16
34658;BME280;20865;43.312;27.152;2023-02-13T12:49:11;102211.69;;;16.62;26.38
34658;BME280;20865;43.312;27.152;2023-02-13T12:54:39;102208.30;;;16.92;26.41
34658;BME280;20865;43.312;27.152;2023-02-13T13:00:20;102203.52;;;16.65;26.63
34658;BME280;20865;43.312;27.152;2023-02-13T13:03:27;102201.88;;;16.60;26.92
34658;BME280;20865;43.312;27.152;2023-02-13T13:06:09;102201.98;;;16.75;27.05
34658;BME280;20865;43.312;27.152;2023-02-13T13:11:44;102202.38;;;16.77;26.91
34658;BME280;20865;43.312;27.152;2023-02-13T13:25:28;102197.24;;;16.65;26.88
34658;BME280;20865;43.312;27.152;2023-02-13T13:27:56;102199.33;;;16.16;27.22
34658;BME280;20865;43.312;27.152;2023-02-13T13:30:28;102191.91;;;16.26;27.33
34658;BME280;20865;43.312;27.152;2023-02-13T13:33:13;102189.68;;;16.26;27.43
34658;BME280;20865;43.312;27.152;2023-02-13T13:35:52;102183.42;;;16.24;27.41
34658;BME280;20865;43.312;27.152;2023-02-13T13:41:00;102178.08;;;16.22;27.75
34658;BME280;20865;43.312;27.152;2023-02-13T13:43:32;102174.33;;;16.28;27.81
34658;BME280;20865;43.312;27.152;2023-02-13T13:46:23;102168.25;;;16.19;27.89
34658;BME280;20865;43.312;27.152;2023-02-13T13:49:10;102166.36;;;16.23;27.92
34658;BME280;20865;43.312;27.152;2023-02-13T13:51:34;102173.50;;;16.06;28.15
34658;BME280;20865;43.312;27.152;2023-02-13T14:07:40;102148.59;;;15.76;28.29
34658;BME280;20865;43.312;27.152;2023-02-13T14:12:59;102140.95;;;15.54;28.23
34658;BME280;20865;43.312;27.152;2023-02-13T14:26:30;102139.61;;;15.54;28.78
34658;BME280;20865;43.312;27.152;2023-02-13T14:29:03;102132.81;;;15.57;28.74
34658;BME280;20865;43.312;27.152;2023-02-13T14:31:30;102125.84;;;15.47;28.93
34658;BME280;20865;43.312;27.152;2023-02-13T14:36:35;102130.10;;;15.38;28.69
34658;BME280;20865;43.312;27.152;2023-02-13T14:44:31;102120.32;;;15.11;29.00
34658;BME280;20865;43.312;27.152;2023-02-13T14:47:22;102118.03;;;15.14;29.08
34658;BME280;20865;43.312;27.152;2023-02-13T14:49:35;102120.12;;;14.98;29.29
34658;BME280;20865;43.312;27.152;2023-02-13T14:52:19;102117.48;;;14.96;29.33
34658;BME280;20865;43.312;27.152;2023-02-13T14:55:07;102121.78;;;14.83;29.49
34658;BME280;20865;43.312;27.152;2023-02-13T14:57:37;102120.59;;;14.75;29.71
34658;BME280;20865;43.312;27.152;2023-02-13T15:00:23;102117.97;;;14.70;29.82
34658;BME280;20865;43.312;27.152;2023-02-13T15:02:54;102113.25;;;14.59;30.04
34658;BME280;20865;43.312;27.152;2023-02-13T15:05:23;102118.89;;;14.69;30.25
34658;BME280;20865;43.312;27.152;2023-02-13T15:07:58;102115.52;;;14.58;30.43
34658;BME280;20865;43.312;27.152;2023-02-13T15:10:54;102115.42;;;14.63;30.37
34658;BME280;20865;43.312;27.152;2023-02-13T15:13:22;102120.02;;;14.56;30.64
34658;BME280;20865;43.312;27.152;2023-02-13T15:16:04;102114.18;;;14.57;30.62
34658;BME280;20865;43.312;27.152;2023-02-13T15:18:49;102119.23;;;14.51;30.80
34658;BME280;20865;43.312;27.152;2023-02-13T15:21:22;102119.58;;;14.28;31.13
34658;BME280;20865;43.312;27.152;2023-02-13T15:23:54;102119.49;;;14.33;31.19
34658;BME280;20865;43.312;27.152;2023-02-13T15:26:24;102115.45;;;14.34;31.13
34658;BME280;20865;43.312;27.152;2023-02-13T15:29:01;102118.28;;;14.26;31.30
34658;BME280;20865;43.312;27.152;2023-02-13T15:31:31;102121.48;;;14.21;31.33